Aviation Digital Data Service (ADDS)

Output produced by METARs form (0736 UTC 24 March 2019)
found at http://www.aviationweather.gov/metar/data/
 
FMCH 240700Z 24006KT 9999 FEW020TCU 31/25 Q1012 NOSIG
TAF FMCH 240500Z 2406/2512 22010KT 9999 FEW020 
     PROB30 
     TEMPO 2411/2415 4500 SHRA 
     BECMG 2416/2418 10004KT 
     BECMG 2504/2506 25010KT